createdAt,value
2023-02-04T00:00:23.433Z,5.76
2023-02-04T00:02:50.542Z,5.74
2023-02-04T00:05:18.671Z,5.82
2023-02-04T00:07:45.262Z,5.88
2023-02-04T00:10:11.952Z,5.86
2023-02-04T00:12:38.747Z,5.58
2023-02-04T00:15:06.237Z,5.79
2023-02-04T00:17:32.917Z,5.59
2023-02-04T00:19:59.395Z,5.47
2023-02-04T00:22:28.207Z,5.35
2023-02-04T00:24:54.923Z,5.17
2023-02-04T00:27:21.491Z,5.03
2023-02-04T00:29:47.986Z,4.96
2023-02-04T00:32:14.644Z,5.14
2023-02-04T00:34:41.454Z,5.21
2023-02-04T00:37:08.257Z,5.26
2023-02-04T00:39:34.815Z,5.26
2023-02-04T00:42:03.148Z,5.22
2023-02-04T00:44:29.745Z,5.30
2023-02-04T00:46:57.098Z,5.45
2023-02-04T00:49:23.702Z,5.35
2023-02-04T00:51:51.176Z,5.43
2023-02-04T00:54:17.637Z,5.31
2023-02-04T00:56:44.848Z,5.27
2023-02-04T00:59:11.802Z,5.29
2023-02-04T01:01:38.418Z,5.21
2023-02-04T01:04:05.647Z,5.08
2023-02-04T01:06:32.825Z,5.05
2023-02-04T01:08:59.369Z,5.07
2023-02-04T01:11:26.058Z,5.18
2023-02-04T01:13:52.564Z,5.20
2023-02-04T01:16:19.373Z,5.21
2023-02-04T01:18:46.148Z,5.25
2023-02-04T01:21:12.587Z,5.38
2023-02-04T01:23:39.111Z,5.34
2023-02-04T01:26:05.780Z,5.32
2023-02-04T01:28:32.383Z,5.35
2023-02-04T01:30:58.922Z,5.25
2023-02-04T01:33:25.496Z,5.38
2023-02-04T01:35:52.021Z,5.25
2023-02-04T01:38:18.552Z,5.29
2023-02-04T01:40:45.136Z,5.27
2023-02-04T01:43:12.518Z,5.27
2023-02-04T01:45:39.529Z,5.30
2023-02-04T01:48:07.695Z,5.28
2023-02-04T01:50:35.242Z,5.27
2023-02-04T01:53:02.301Z,5.35
2023-02-04T01:55:32.979Z,5.42
2023-02-04T01:57:59.978Z,5.52
2023-02-04T02:00:31.377Z,5.52
2023-02-04T02:02:59.741Z,5.48
2023-02-04T02:05:47.904Z,5.43
2023-02-04T02:08:15.926Z,5.43
2023-02-04T02:10:48.145Z,5.52
2023-02-04T02:13:19.090Z,5.53
2023-02-04T02:15:47.176Z,5.53
2023-02-04T02:18:14.716Z,5.50
2023-02-04T02:20:44.219Z,5.43
2023-02-04T02:23:24.788Z,5.33
2023-02-04T02:25:51.628Z,5.34
2023-02-04T02:28:22.960Z,5.27
2023-02-04T02:30:50.743Z,5.19
2023-02-04T02:33:21.014Z,5.13
2023-02-04T02:35:48.590Z,5.09
2023-02-04T02:38:18.206Z,5.13
2023-02-04T02:40:45.965Z,5.16
2023-02-04T02:43:21.289Z,5.09
2023-02-04T02:45:49.530Z,5.16
2023-02-04T02:48:16.894Z,5.17
2023-02-04T02:50:44.297Z,5.22
2023-02-04T02:53:15.375Z,5.19
2023-02-04T02:55:43.350Z,5.23
2023-02-04T02:58:23.626Z,5.15
2023-02-04T03:00:50.238Z,5.13
2023-02-04T03:03:30.318Z,5.06
2023-02-04T03:06:07.555Z,4.90
2023-02-04T03:08:35.028Z,4.95
2023-02-04T03:11:02.035Z,4.94
2023-02-04T03:13:29.149Z,4.79
2023-02-04T03:15:56.321Z,4.61
2023-02-04T03:18:23.473Z,4.67
2023-02-04T03:20:52.045Z,4.67
2023-02-04T03:23:20.240Z,4.71
2023-02-04T03:25:46.865Z,4.76
2023-02-04T03:28:13.448Z,4.69
2023-02-04T03:30:40.108Z,4.68
2023-02-04T03:33:06.641Z,4.72
2023-02-04T03:35:33.159Z,4.63
2023-02-04T03:37:59.859Z,4.62
2023-02-04T03:40:26.392Z,4.60
2023-02-04T03:42:53.063Z,4.45
2023-02-04T03:45:20.060Z,4.39
2023-02-04T03:47:46.549Z,4.38
2023-02-04T03:50:14.261Z,4.31
2023-02-04T03:52:40.722Z,4.28
2023-02-04T03:55:07.621Z,4.24
2023-02-04T03:57:34.106Z,4.34
2023-02-04T04:00:00.580Z,4.29
2023-02-04T04:02:27.135Z,4.19
2023-02-04T04:04:53.661Z,4.21
2023-02-04T04:07:20.227Z,4.28
2023-02-04T04:09:46.701Z,4.33
2023-02-04T04:12:13.144Z,4.24
2023-02-04T04:14:39.648Z,4.26
2023-02-04T04:17:06.922Z,4.22
2023-02-04T04:19:33.401Z,4.26
2023-02-04T04:21:59.932Z,4.20
2023-02-04T04:24:26.665Z,4.12
2023-02-04T04:26:53.162Z,4.02
2023-02-04T04:29:19.647Z,3.96
2023-02-04T04:31:46.182Z,3.92
2023-02-04T04:34:12.690Z,3.73
2023-02-04T04:36:39.167Z,3.82
2023-02-04T04:39:05.650Z,3.84
2023-02-04T04:41:32.132Z,3.69
2023-02-04T04:43:58.648Z,3.73
2023-02-04T04:46:25.108Z,3.69
2023-02-04T04:48:51.704Z,3.56
2023-02-04T04:51:18.275Z,3.55
2023-02-04T04:53:44.804Z,3.63
2023-02-04T04:56:11.299Z,3.63
2023-02-04T04:58:37.817Z,3.55
2023-02-04T05:01:04.417Z,3.58
2023-02-04T05:03:30.951Z,3.76
2023-02-04T05:05:57.886Z,3.90
2023-02-04T05:08:24.445Z,3.89
2023-02-04T05:10:50.889Z,3.94
2023-02-04T05:13:18.568Z,3.99
2023-02-04T05:15:45.100Z,3.88
2023-02-04T05:18:11.548Z,3.92
2023-02-04T05:20:38.021Z,3.79
2023-02-04T05:23:05.690Z,3.68
2023-02-04T05:25:32.780Z,3.59
2023-02-04T05:27:59.336Z,3.55
2023-02-04T05:30:26.098Z,3.59
2023-02-04T05:32:52.641Z,3.61
2023-02-04T05:35:19.417Z,3.67
2023-02-04T05:37:45.937Z,3.65
2023-02-04T05:40:13.585Z,3.71
2023-02-04T05:42:41.697Z,3.81
2023-02-04T05:45:16.048Z,3.82
2023-02-04T05:47:42.921Z,3.85
2023-02-04T05:50:10.178Z,3.98
2023-02-04T05:52:36.852Z,4.09
2023-02-04T05:55:03.614Z,4.14
2023-02-04T05:57:30.168Z,4.01
2023-02-04T05:59:56.713Z,4.00
2023-02-04T06:02:23.398Z,4.14
2023-02-04T06:04:49.849Z,4.21
2023-02-04T06:07:16.372Z,4.17
2023-02-04T06:09:42.880Z,4.22
2023-02-04T06:12:10.534Z,4.31
2023-02-04T06:14:37.048Z,4.31
2023-02-04T06:17:03.766Z,4.14
2023-02-04T06:19:30.276Z,4.05
2023-02-04T06:21:56.749Z,3.98
2023-02-04T06:24:23.278Z,4.08
2023-02-04T06:26:49.771Z,4.19
2023-02-04T06:29:16.246Z,4.20
2023-02-04T06:31:44.516Z,4.24
2023-02-04T06:34:11.181Z,4.31
2023-02-04T06:36:37.663Z,4.21
2023-02-04T06:39:04.173Z,4.11
2023-02-04T06:41:30.671Z,4.20
2023-02-04T06:43:57.210Z,4.10
2023-02-04T06:46:23.894Z,4.12
2023-02-04T06:48:50.394Z,4.14
2023-02-04T06:51:16.866Z,4.18
2023-02-04T06:53:45.669Z,4.21
2023-02-04T06:56:12.459Z,4.19
2023-02-04T06:58:39.247Z,4.28
2023-02-04T07:01:06.342Z,4.26
2023-02-04T07:03:33.800Z,4.05
2023-02-04T07:06:00.254Z,4.13
2023-02-04T07:08:26.763Z,4.27
2023-02-04T07:10:53.357Z,4.36
2023-02-04T07:13:20.109Z,4.32
2023-02-04T07:15:46.682Z,4.40
2023-02-04T07:18:13.345Z,4.42
2023-02-04T07:20:39.867Z,4.45
2023-02-04T07:23:06.343Z,4.50
2023-02-04T07:25:32.861Z,4.53
2023-02-04T07:28:01.620Z,4.55
2023-02-04T07:30:28.203Z,4.55
2023-02-04T07:32:54.831Z,4.47
2023-02-04T07:35:21.310Z,4.40
2023-02-04T07:37:47.856Z,4.51
2023-02-04T07:40:14.474Z,4.63
2023-02-04T07:42:41.068Z,4.71
2023-02-04T07:45:08.700Z,4.69
2023-02-04T07:47:35.187Z,4.71
2023-02-04T07:50:01.750Z,4.81
2023-02-04T07:52:28.312Z,4.88
2023-02-04T07:54:54.829Z,4.92
2023-02-04T07:57:21.541Z,4.98
2023-02-04T07:59:48.024Z,4.90
2023-02-04T08:02:14.615Z,4.78
2023-02-04T08:04:41.255Z,4.71
2023-02-04T08:07:07.749Z,4.81
2023-02-04T08:09:34.253Z,4.91
2023-02-04T08:12:00.735Z,4.94
2023-02-04T08:14:27.204Z,5.05
2023-02-04T08:16:53.697Z,5.13
2023-02-04T08:19:21.435Z,5.13
2023-02-04T08:21:48.462Z,5.20
2023-02-04T08:24:17.010Z,5.30
2023-02-04T08:26:44.476Z,5.29
2023-02-04T08:29:11.110Z,5.33
2023-02-04T08:31:38.702Z,5.44
2023-02-04T08:34:06.107Z,5.51
2023-02-04T08:36:33.276Z,5.55
2023-02-04T08:38:59.794Z,5.67
2023-02-04T08:41:26.251Z,5.63
2023-02-04T08:43:52.810Z,5.69
2023-02-04T08:46:19.405Z,5.70
2023-02-04T08:48:46.021Z,5.77
2023-02-04T08:51:12.573Z,5.89
2023-02-04T08:53:40.676Z,6.02
2023-02-04T08:56:08.898Z,6.15
2023-02-04T08:58:35.505Z,6.15
2023-02-04T09:01:02.753Z,6.25
2023-02-04T09:03:29.345Z,6.36
2023-02-04T09:05:55.908Z,6.42
2023-02-04T09:08:22.386Z,6.45
2023-02-04T09:10:48.874Z,6.56
2023-02-04T09:13:15.468Z,6.57
2023-02-04T09:15:42.001Z,6.64
2023-02-04T09:18:19.954Z,6.67
2023-02-04T09:20:46.571Z,6.70
2023-02-04T09:23:13.556Z,6.75
2023-02-04T09:25:41.108Z,6.81
2023-02-04T09:28:11.872Z,6.81
2023-02-04T09:30:40.268Z,6.80
2023-02-04T09:33:08.233Z,6.84
2023-02-04T09:35:34.774Z,6.80
2023-02-04T09:38:02.140Z,6.84
2023-02-04T09:40:34.744Z,6.91
2023-02-04T09:43:04.049Z,7.04
2023-02-04T09:45:35.720Z,6.99
2023-02-04T09:48:07.497Z,7.04
2023-02-04T09:50:35.108Z,7.06
2023-02-04T09:53:05.693Z,7.16
2023-02-04T09:55:38.325Z,7.24
2023-02-04T09:58:20.704Z,7.00
2023-02-04T10:01:00.019Z,7.05
2023-02-04T10:03:26.953Z,7.13
2023-02-04T10:05:53.686Z,7.18
2023-02-04T10:08:29.118Z,7.15
2023-02-04T10:10:58.024Z,7.20
2023-02-04T10:13:34.618Z,7.19
2023-02-04T10:16:03.760Z,7.19
2023-02-04T10:18:33.835Z,7.18
2023-02-04T10:21:36.820Z,7.15
2023-02-04T10:24:12.684Z,7.23
2023-02-04T10:26:39.190Z,7.25
2023-02-04T10:29:14.170Z,7.26
2023-02-04T10:31:44.649Z,7.38
2023-02-04T10:34:18.073Z,7.44
2023-02-04T10:36:49.218Z,7.39
2023-02-04T10:39:24.886Z,7.45
2023-02-04T10:41:57.232Z,7.48
2023-02-04T10:44:32.927Z,7.45
2023-02-04T10:47:05.790Z,7.58
2023-02-04T10:49:33.389Z,7.75
2023-02-04T10:52:02.451Z,7.83
2023-02-04T10:54:38.157Z,7.87
2023-02-04T10:57:21.671Z,7.91
2023-02-04T10:59:53.633Z,7.91
2023-02-04T11:02:44.850Z,7.99
2023-02-04T11:05:25.912Z,7.98
2023-02-04T11:07:52.466Z,8.00
2023-02-04T11:10:28.138Z,8.05
2023-02-04T11:12:54.528Z,8.12
2023-02-04T11:15:44.502Z,8.10
2023-02-04T11:18:20.331Z,8.15
2023-02-04T11:20:50.112Z,8.16
2023-02-04T11:23:29.937Z,8.17
2023-02-04T11:26:13.378Z,8.25
2023-02-04T11:28:49.783Z,8.18
2023-02-04T11:31:22.308Z,8.17
2023-02-04T11:34:02.222Z,8.36
2023-02-04T11:36:30.469Z,8.44
2023-02-04T11:38:57.021Z,8.39
2023-02-04T11:41:33.256Z,8.29
2023-02-04T11:44:00.000Z,8.33
2023-02-04T11:46:29.099Z,8.39
2023-02-04T11:48:58.620Z,8.43
2023-02-04T11:51:35.127Z,8.47
2023-02-04T11:54:01.635Z,8.48
2023-02-04T11:56:30.221Z,8.49
2023-02-04T11:58:58.626Z,8.52
2023-02-04T12:01:32.492Z,8.48
2023-02-04T12:04:03.526Z,8.57
2023-02-04T12:06:36.809Z,8.53
2023-02-04T12:09:16.119Z,8.65
2023-02-04T12:11:58.418Z,8.45
2023-02-04T12:14:38.658Z,8.46
2023-02-04T12:17:20.308Z,8.52
2023-02-04T12:19:46.821Z,8.65
2023-02-04T12:22:14.681Z,8.69
2023-02-04T12:24:41.680Z,8.56
2023-02-04T12:27:08.153Z,8.65
2023-02-04T12:29:34.710Z,8.70
2023-02-04T12:32:01.406Z,8.73
2023-02-04T12:34:28.870Z,8.70
2023-02-04T12:36:55.347Z,8.49
2023-02-04T12:39:21.862Z,8.57
2023-02-04T12:41:48.350Z,8.60
2023-02-04T12:44:15.783Z,8.49
2023-02-04T12:46:42.384Z,8.57
2023-02-04T12:49:09.702Z,8.74
2023-02-04T12:51:36.288Z,8.83
2023-02-04T12:54:02.854Z,8.96
2023-02-04T12:56:29.415Z,9.14
2023-02-04T12:58:55.911Z,9.19
2023-02-04T13:01:22.397Z,9.26
2023-02-04T13:03:48.920Z,9.24
2023-02-04T13:06:15.350Z,9.20
2023-02-04T13:08:41.885Z,9.31
2023-02-04T13:11:08.456Z,9.33
2023-02-04T13:13:34.988Z,9.29
2023-02-04T13:16:01.490Z,9.22
2023-02-04T13:18:28.558Z,9.17
2023-02-04T13:20:55.023Z,9.08
2023-02-04T13:23:21.480Z,8.94
2023-02-04T13:25:48.000Z,8.98
2023-02-04T13:28:14.608Z,9.06
2023-02-04T13:30:41.252Z,8.92
2023-02-04T13:33:07.758Z,8.58
2023-02-04T13:35:34.552Z,8.66
2023-02-04T13:38:01.168Z,8.69
2023-02-04T13:40:27.766Z,8.61
2023-02-04T13:42:54.340Z,8.55
2023-02-04T13:45:20.853Z,8.51
2023-02-04T13:47:48.741Z,8.33
2023-02-04T13:50:16.683Z,8.28
2023-02-04T13:52:43.449Z,8.25
2023-02-04T13:55:10.063Z,8.24
2023-02-04T13:57:37.808Z,8.13
2023-02-04T14:00:06.906Z,8.08
2023-02-04T14:02:33.802Z,8.16
2023-02-04T14:05:00.463Z,8.21
2023-02-04T14:07:27.442Z,8.21
2023-02-04T14:09:53.940Z,8.37
2023-02-04T14:12:20.416Z,8.41
2023-02-04T14:14:46.954Z,8.36
2023-02-04T14:17:13.485Z,8.47
2023-02-04T14:19:40.023Z,8.55
2023-02-04T14:22:07.664Z,8.47
2023-02-04T14:24:34.237Z,8.51
2023-02-04T14:27:03.867Z,8.57
2023-02-04T14:29:30.359Z,8.75
2023-02-04T14:31:56.887Z,8.80
2023-02-04T14:34:23.408Z,8.82
2023-02-04T14:36:50.076Z,8.70
2023-02-04T14:39:16.579Z,8.75
2023-02-04T14:41:43.008Z,8.82
2023-02-04T14:44:09.534Z,8.81
2023-02-04T14:46:36.234Z,8.81
2023-02-04T14:49:02.875Z,8.73
2023-02-04T14:51:29.330Z,8.74
2023-02-04T14:53:55.839Z,8.80
2023-02-04T14:56:22.334Z,8.80
2023-02-04T14:58:48.838Z,8.81
2023-02-04T15:01:15.334Z,8.73
2023-02-04T15:03:41.846Z,8.52
2023-02-04T15:06:08.286Z,8.55
2023-02-04T15:08:35.473Z,8.44
2023-02-04T15:11:02.004Z,8.42
2023-02-04T15:13:29.262Z,8.39
2023-02-04T15:15:55.802Z,8.37
2023-02-04T15:18:22.504Z,8.34
2023-02-04T15:20:48.998Z,8.44
2023-02-04T15:23:15.500Z,8.33
2023-02-04T15:25:42.086Z,8.17
2023-02-04T15:28:10.911Z,8.18
2023-02-04T15:30:38.697Z,8.19
2023-02-04T15:33:05.240Z,8.21
2023-02-04T15:35:31.725Z,8.23
2023-02-04T15:37:58.225Z,8.25
2023-02-04T15:40:24.737Z,8.27
2023-02-04T15:42:52.922Z,8.11
2023-02-04T15:45:19.416Z,8.15
2023-02-04T15:47:45.927Z,8.19
2023-02-04T15:50:14.869Z,8.16
2023-02-04T15:52:41.347Z,8.00
2023-02-04T15:55:08.199Z,7.91
2023-02-04T15:57:34.792Z,7.82
2023-02-04T16:00:01.290Z,7.70
2023-02-04T16:02:27.906Z,7.72
2023-02-04T16:04:54.425Z,7.62
2023-02-04T16:07:22.327Z,7.50
2023-02-04T16:09:48.796Z,7.50
2023-02-04T16:12:15.374Z,7.50
2023-02-04T16:14:41.960Z,7.44
2023-02-04T16:17:09.557Z,7.46
2023-02-04T16:19:36.035Z,7.37
2023-02-04T16:22:02.505Z,7.26
2023-02-04T16:24:28.962Z,7.26
2023-02-04T16:26:55.408Z,7.23
2023-02-04T16:29:21.894Z,7.14
2023-02-04T16:31:48.664Z,7.10
2023-02-04T16:34:15.182Z,7.06
2023-02-04T16:36:41.668Z,7.02
2023-02-04T16:39:08.172Z,6.92
2023-02-04T16:41:34.684Z,6.88
2023-02-04T16:44:01.120Z,6.84
2023-02-04T16:46:30.416Z,6.74
2023-02-04T16:48:57.036Z,6.71
2023-02-04T16:51:24.799Z,6.68
2023-02-04T16:53:51.349Z,6.61
2023-02-04T16:56:17.950Z,6.53
2023-02-04T16:58:44.859Z,6.46
2023-02-04T17:01:11.560Z,6.49
2023-02-04T17:03:38.052Z,6.33
2023-02-04T17:06:04.682Z,6.31
2023-02-04T17:08:31.166Z,6.22
2023-02-04T17:11:16.286Z,6.11
2023-02-04T17:13:42.770Z,5.95
2023-02-04T17:16:09.368Z,5.87
2023-02-04T17:18:35.984Z,5.78
2023-02-04T17:21:02.819Z,5.68
2023-02-04T17:23:29.393Z,5.63
2023-02-04T17:25:56.017Z,5.50
2023-02-04T17:28:24.092Z,5.35
2023-02-04T17:30:50.662Z,5.20
2023-02-04T17:33:17.226Z,5.12
2023-02-04T17:35:44.951Z,5.09
2023-02-04T17:38:11.506Z,5.07
2023-02-04T17:40:38.052Z,5.09
2023-02-04T17:43:04.870Z,5.10
2023-02-04T17:45:31.680Z,4.97
2023-02-04T17:47:58.379Z,4.76
2023-02-04T17:50:25.184Z,4.70
2023-02-04T17:52:52.450Z,4.67
2023-02-04T17:55:28.940Z,4.41
2023-02-04T17:57:59.751Z,4.26
2023-02-04T18:00:30.766Z,4.15
2023-02-04T18:02:57.579Z,4.18
2023-02-04T18:05:30.703Z,4.31
2023-02-04T18:08:13.624Z,4.24
2023-02-04T18:10:49.217Z,4.20
2023-02-04T18:13:34.126Z,4.03
2023-02-04T18:16:24.212Z,3.78
2023-02-04T18:18:55.437Z,3.84
2023-02-04T18:21:27.605Z,3.77
2023-02-04T18:24:17.313Z,3.73
2023-02-04T18:26:52.912Z,3.89
2023-02-04T18:29:38.288Z,3.97
2023-02-04T18:32:23.401Z,4.01
2023-02-04T18:34:55.678Z,3.90
2023-02-04T18:37:36.054Z,3.75
2023-02-04T18:40:08.512Z,3.79
2023-02-04T18:42:40.094Z,3.96
2023-02-04T18:45:28.770Z,3.97
2023-02-04T18:47:57.822Z,3.83
2023-02-04T18:50:32.579Z,3.69
2023-02-04T18:53:11.040Z,3.37
2023-02-04T18:55:41.307Z,3.37
2023-02-04T18:58:17.226Z,3.31
2023-02-04T19:00:51.825Z,3.40
2023-02-04T19:03:31.677Z,3.43
2023-02-04T19:06:02.315Z,3.37
2023-02-04T19:08:42.648Z,3.33
2023-02-04T19:11:36.062Z,3.22
2023-02-04T19:14:38.772Z,3.16
2023-02-04T19:17:14.526Z,3.20
2023-02-04T19:19:54.243Z,3.12
2023-02-04T19:22:40.365Z,3.14
2023-02-04T19:25:27.957Z,3.13
2023-02-04T19:28:00.084Z,3.30
2023-02-04T19:30:26.524Z,3.38
2023-02-04T19:32:57.680Z,3.25
2023-02-04T19:35:27.806Z,3.21
2023-02-04T19:38:02.932Z,3.23
2023-02-04T19:40:37.127Z,3.16
2023-02-04T19:43:37.208Z,3.07
2023-02-04T19:46:34.436Z,3.11
2023-02-04T19:49:20.731Z,3.24
2023-02-04T19:51:57.931Z,3.38
2023-02-04T19:54:41.504Z,3.44
2023-02-04T19:57:32.325Z,3.38
2023-02-04T19:59:59.904Z,3.52
2023-02-04T20:02:38.234Z,3.36
2023-02-04T20:05:19.625Z,3.12
2023-02-04T20:07:46.305Z,3.19
2023-02-04T20:10:27.601Z,3.10
2023-02-04T20:13:19.529Z,2.99
2023-02-04T20:15:46.240Z,3.04
2023-02-04T20:18:19.947Z,3.07
2023-02-04T20:20:47.004Z,3.09
2023-02-04T20:23:32.590Z,2.98
2023-02-04T20:26:01.287Z,2.90
2023-02-04T20:31:22.595Z,2.92
2023-02-04T20:33:53.966Z,2.76
2023-02-04T20:36:26.766Z,2.75
2023-02-04T20:39:23.628Z,2.82
2023-02-04T20:41:50.136Z,2.56
2023-02-04T20:44:27.574Z,2.52
2023-02-04T20:47:15.812Z,2.50
2023-02-04T20:49:44.347Z,2.53
2023-02-04T20:52:39.703Z,2.30
2023-02-04T20:55:30.987Z,2.02
2023-02-04T20:58:20.712Z,1.90
2023-02-04T21:00:52.155Z,2.02
2023-02-04T21:03:29.597Z,2.04
2023-02-04T21:05:59.593Z,2.05
2023-02-04T21:08:57.583Z,2.02
2023-02-04T21:11:25.714Z,1.96
2023-02-04T21:13:54.696Z,1.77
2023-02-04T21:16:22.093Z,1.69
2023-02-04T21:18:48.637Z,1.76
2023-02-04T21:21:15.311Z,1.87
2023-02-04T21:23:42.063Z,1.88
2023-02-04T21:26:08.759Z,1.74
2023-02-04T21:28:35.470Z,1.56
2023-02-04T21:31:02.297Z,1.42
2023-02-04T21:33:29.058Z,1.40
2023-02-04T21:35:55.687Z,1.31
2023-02-04T21:38:22.185Z,1.25
2023-02-04T21:40:48.772Z,1.20
2023-02-04T21:43:15.355Z,1.20
2023-02-04T21:45:41.869Z,1.22
2023-02-04T21:48:08.470Z,1.36
2023-02-04T21:50:38.186Z,1.30
2023-02-04T21:53:07.450Z,1.16
2023-02-04T21:55:35.424Z,1.17
2023-02-04T21:58:02.594Z,1.31
2023-02-04T22:00:29.164Z,1.41
2023-02-04T22:02:55.902Z,1.38
2023-02-04T22:05:23.721Z,1.26
2023-02-04T22:07:51.409Z,1.25
2023-02-04T22:10:22.621Z,1.31
2023-02-04T22:12:49.605Z,1.17
2023-02-04T22:15:16.905Z,1.15
2023-02-04T22:17:44.858Z,1.22
2023-02-04T22:20:15.543Z,1.32
2023-02-04T22:22:46.619Z,1.44
2023-02-04T22:25:17.294Z,1.33
2023-02-04T22:27:44.564Z,1.27
2023-02-04T22:30:13.785Z,1.30
2023-02-04T22:32:40.653Z,1.30
2023-02-04T22:35:12.113Z,1.27
2023-02-04T22:37:40.834Z,1.40
2023-02-04T22:40:11.628Z,1.53
2023-02-04T22:42:38.144Z,1.55
2023-02-04T22:45:05.435Z,1.43
2023-02-04T22:47:32.004Z,1.47
2023-02-04T22:49:58.515Z,1.43
2023-02-04T22:52:25.134Z,1.33
2023-02-04T22:54:52.474Z,1.39
2023-02-04T22:57:19.008Z,1.49
2023-02-04T22:59:45.579Z,1.59
2023-02-04T23:02:12.104Z,1.63
2023-02-04T23:04:38.738Z,1.41
2023-02-04T23:07:05.800Z,1.52
2023-02-04T23:09:33.054Z,1.63
2023-02-04T23:12:12.498Z,1.53
2023-02-04T23:14:46.888Z,1.49
2023-02-04T23:17:15.716Z,1.58
2023-02-04T23:19:43.104Z,1.70
2023-02-04T23:22:11.687Z,1.79
2023-02-04T23:24:39.574Z,1.83
2023-02-04T23:27:06.796Z,1.81
2023-02-04T23:29:35.202Z,1.78
2023-02-04T23:32:03.160Z,1.60
2023-02-04T23:34:30.700Z,1.50
2023-02-04T23:36:57.418Z,1.43
2023-02-04T23:39:24.012Z,1.33
2023-02-04T23:41:50.933Z,1.37
2023-02-04T23:44:17.630Z,1.38
2023-02-04T23:46:44.384Z,1.33
2023-02-04T23:49:11.493Z,1.34
2023-02-04T23:51:38.039Z,1.41
2023-02-04T23:54:05.149Z,1.47
2023-02-04T23:56:31.714Z,1.63
2023-02-04T23:58:58.209Z,1.72
